sensor_id;sensor_type;location;lat;lon;timestamp;P1;durP1;ratioP1;P2;durP2;ratioP2
16133;SDS011;8172;45.018;5.972;2023-05-10T07:52:47;0.40;;;0.40;;
16133;SDS011;8172;45.018;5.972;2023-05-10T07:58:00;0.30;;;0.30;;
16133;SDS011;8172;45.018;5.972;2023-05-10T08:03:09;0.30;;;0.30;;
16133;SDS011;8172;45.018;5.972;2023-05-10T08:08:18;0.30;;;0.30;;
16133;SDS011;8172;45.018;5.972;2023-05-10T08:13:30;0.30;;;0.30;;
16133;SDS011;8172;45.018;5.972;2023-05-10T08:18:41;0.30;;;0.30;;
16133;SDS011;8172;45.018;5.972;2023-05-10T08:23:50;0.30;;;0.30;;
16133;SDS011;8172;45.018;5.972;2023-05-10T08:29:00;0.40;;;0.40;;
16133;SDS011;8172;45.018;5.972;2023-05-10T08:34:10;0.30;;;0.30;;
16133;SDS011;8172;45.018;5.972;2023-05-10T08:39:20;0.40;;;0.40;;
16133;SDS011;8172;45.018;5.972;2023-05-10T08:44:32;0.40;;;0.40;;
16133;SDS011;8172;45.018;5.972;2023-05-10T08:49:42;0.40;;;0.40;;
16133;SDS011;8172;45.018;5.972;2023-05-10T08:54:54;0.40;;;0.40;;
16133;SDS011;8172;45.018;5.972;2023-05-10T09:00:04;0.73;;;0.53;;
16133;SDS011;8172;45.018;5.972;2023-05-10T09:05:15;0.40;;;0.40;;
16133;SDS011;8172;45.018;5.972;2023-05-10T09:10:25;0.40;;;0.40;;
16133;SDS011;8172;45.018;5.972;2023-05-10T09:15:35;1.13;;;0.70;;
16133;SDS011;8172;45.018;5.972;2023-05-10T09:20:44;0.50;;;0.40;;
16133;SDS011;8172;45.018;5.972;2023-05-10T09:31:03;0.80;;;0.60;;
16133;SDS011;8172;45.018;5.972;2023-05-10T09:36:11;1.27;;;0.60;;
16133;SDS011;8172;45.018;5.972;2023-05-10T09:41:21;0.93;;;0.53;;
16133;SDS011;8172;45.018;5.972;2023-05-10T09:46:34;1.20;;;0.50;;
16133;SDS011;8172;45.018;5.972;2023-05-10T09:51:43;0.53;;;0.53;;
16133;SDS011;8172;45.018;5.972;2023-05-10T09:56:51;0.40;;;0.40;;
16133;SDS011;8172;45.018;5.972;2023-05-10T10:02:00;0.50;;;0.50;;
16133;SDS011;8172;45.018;5.972;2023-05-10T10:07:08;2.17;;;0.60;;
16133;SDS011;8172;45.018;5.972;2023-05-10T10:12:16;1.13;;;0.60;;
16133;SDS011;8172;45.018;5.972;2023-05-10T10:17:26;0.70;;;0.50;;
16133;SDS011;8172;45.018;5.972;2023-05-10T10:22:37;0.70;;;0.63;;
16133;SDS011;8172;45.018;5.972;2023-05-10T10:38:08;1.27;;;0.80;;
16133;SDS011;8172;45.018;5.972;2023-05-10T10:48:26;1.77;;;0.70;;
16133;SDS011;8172;45.018;5.972;2023-05-10T10:53:34;0.80;;;0.50;;
16133;SDS011;8172;45.018;5.972;2023-05-10T10:58:48;0.70;;;0.70;;
16133;SDS011;8172;45.018;5.972;2023-05-10T11:09:07;0.90;;;0.60;;
16133;SDS011;8172;45.018;5.972;2023-05-10T11:14:19;3.87;;;0.90;;
16133;SDS011;8172;45.018;5.972;2023-05-10T11:19:28;1.00;;;0.70;;
16133;SDS011;8172;45.018;5.972;2023-05-10T11:24:38;1.33;;;0.70;;
16133;SDS011;8172;45.018;5.972;2023-05-10T11:29:51;2.67;;;0.87;;
16133;SDS011;8172;45.018;5.972;2023-05-10T11:34:59;0.60;;;0.60;;
16133;SDS011;8172;45.018;5.972;2023-05-10T11:40:10;0.83;;;0.70;;
16133;SDS011;8172;45.018;5.972;2023-05-10T11:45:23;1.87;;;0.73;;
16133;SDS011;8172;45.018;5.972;2023-05-10T11:50:35;2.20;;;0.70;;
16133;SDS011;8172;45.018;5.972;2023-05-10T11:55:44;0.80;;;0.73;;
16133;SDS011;8172;45.018;5.972;2023-05-10T12:00:53;0.77;;;0.60;;
16133;SDS011;8172;45.018;5.972;2023-05-10T12:06:03;1.80;;;0.73;;
16133;SDS011;8172;45.018;5.972;2023-05-10T12:11:12;0.70;;;0.60;;
16133;SDS011;8172;45.018;5.972;2023-05-10T12:16:22;2.10;;;1.20;;
16133;SDS011;8172;45.018;5.972;2023-05-10T12:21:32;2.93;;;0.90;;
16133;SDS011;8172;45.018;5.972;2023-05-10T12:26:40;2.10;;;0.80;;
16133;SDS011;8172;45.018;5.972;2023-05-10T12:31:50;0.70;;;0.70;;
16133;SDS011;8172;45.018;5.972;2023-05-10T12:37:00;1.53;;;0.80;;
16133;SDS011;8172;45.018;5.972;2023-05-10T12:42:09;0.90;;;0.80;;
16133;SDS011;8172;45.018;5.972;2023-05-10T12:47:18;2.17;;;0.80;;
16133;SDS011;8172;45.018;5.972;2023-05-10T12:52:27;0.73;;;0.73;;
16133;SDS011;8172;45.018;5.972;2023-05-10T12:57:38;2.73;;;0.90;;
16133;SDS011;8172;45.018;5.972;2023-05-10T13:02:47;1.00;;;0.83;;
16133;SDS011;8172;45.018;5.972;2023-05-10T13:07:59;1.43;;;0.87;;
16133;SDS011;8172;45.018;5.972;2023-05-10T13:13:08;2.10;;;0.97;;
16133;SDS011;8172;45.018;5.972;2023-05-10T13:18:16;2.00;;;1.00;;
16133;SDS011;8172;45.018;5.972;2023-05-10T13:23:24;1.40;;;1.00;;
16133;SDS011;8172;45.018;5.972;2023-05-10T13:28:32;1.57;;;0.90;;
16133;SDS011;8172;45.018;5.972;2023-05-10T13:33:40;1.30;;;0.90;;
16133;SDS011;8172;45.018;5.972;2023-05-10T13:38:49;1.03;;;0.80;;
16133;SDS011;8172;45.018;5.972;2023-05-10T13:43:57;1.27;;;0.90;;
16133;SDS011;8172;45.018;5.972;2023-05-10T13:49:06;1.37;;;0.93;;
16133;SDS011;8172;45.018;5.972;2023-05-10T13:54:16;2.00;;;0.70;;
16133;SDS011;8172;45.018;5.972;2023-05-10T13:59:25;3.63;;;0.97;;
16133;SDS011;8172;45.018;5.972;2023-05-10T14:04:33;0.80;;;0.80;;
16133;SDS011;8172;45.018;5.972;2023-05-10T14:09:42;3.03;;;0.80;;
16133;SDS011;8172;45.018;5.972;2023-05-10T14:14:51;2.50;;;0.60;;
16133;SDS011;8172;45.018;5.972;2023-05-10T14:19:59;0.50;;;0.50;;
16133;SDS011;8172;45.018;5.972;2023-05-10T14:25:07;0.50;;;0.50;;
16133;SDS011;8172;45.018;5.972;2023-05-10T14:30:16;0.70;;;0.70;;
16133;SDS011;8172;45.018;5.972;2023-05-10T14:35:24;1.80;;;0.60;;
16133;SDS011;8172;45.018;5.972;2023-05-10T14:40:33;0.87;;;0.70;;
16133;SDS011;8172;45.018;5.972;2023-05-10T14:45:45;0.70;;;0.70;;
16133;SDS011;8172;45.018;5.972;2023-05-10T14:50:55;1.23;;;0.70;;
16133;SDS011;8172;45.018;5.972;2023-05-10T14:56:03;1.47;;;0.90;;
16133;SDS011;8172;45.018;5.972;2023-05-10T15:01:11;1.17;;;1.00;;
16133;SDS011;8172;45.018;5.972;2023-05-10T15:11:31;0.97;;;0.80;;
16133;SDS011;8172;45.018;5.972;2023-05-10T15:16:41;1.20;;;0.80;;
16133;SDS011;8172;45.018;5.972;2023-05-10T15:21:50;0.93;;;0.80;;
16133;SDS011;8172;45.018;5.972;2023-05-10T15:27:02;0.70;;;0.70;;
16133;SDS011;8172;45.018;5.972;2023-05-10T15:32:10;1.80;;;0.90;;
16133;SDS011;8172;45.018;5.972;2023-05-10T15:37:19;1.20;;;0.80;;
16133;SDS011;8172;45.018;5.972;2023-05-10T15:42:30;2.03;;;0.80;;
16133;SDS011;8172;45.018;5.972;2023-05-10T15:47:38;0.80;;;0.80;;
16133;SDS011;8172;45.018;5.972;2023-05-10T15:52:48;2.30;;;0.90;;
16133;SDS011;8172;45.018;5.972;2023-05-10T15:57:57;1.40;;;0.87;;
16133;SDS011;8172;45.018;5.972;2023-05-10T16:03:04;1.27;;;0.80;;
16133;SDS011;8172;45.018;5.972;2023-05-10T16:08:13;3.23;;;0.90;;
16133;SDS011;8172;45.018;5.972;2023-05-10T16:13:21;2.30;;;0.80;;
16133;SDS011;8172;45.018;5.972;2023-05-10T16:18:29;1.93;;;0.80;;
16133;SDS011;8172;45.018;5.972;2023-05-10T16:23:38;1.00;;;0.80;;
16133;SDS011;8172;45.018;5.972;2023-05-10T16:28:46;0.80;;;0.80;;
16133;SDS011;8172;45.018;5.972;2023-05-10T16:33:54;2.10;;;0.70;;
16133;SDS011;8172;45.018;5.972;2023-05-10T16:39:02;0.70;;;0.70;;
16133;SDS011;8172;45.018;5.972;2023-05-10T16:44:10;0.97;;;0.80;;
16133;SDS011;8172;45.018;5.972;2023-05-10T16:49:19;1.07;;;0.80;;
16133;SDS011;8172;45.018;5.972;2023-05-10T16:54:29;0.63;;;0.63;;
16133;SDS011;8172;45.018;5.972;2023-05-10T16:59:38;1.53;;;0.80;;
16133;SDS011;8172;45.018;5.972;2023-05-10T17:04:47;2.00;;;0.80;;
16133;SDS011;8172;45.018;5.972;2023-05-10T17:09:56;1.33;;;0.80;;
16133;SDS011;8172;45.018;5.972;2023-05-10T17:15:05;3.90;;;0.90;;
16133;SDS011;8172;45.018;5.972;2023-05-10T17:20:16;1.77;;;0.80;;
16133;SDS011;8172;45.018;5.972;2023-05-10T17:25:25;2.03;;;0.70;;
16133;SDS011;8172;45.018;5.972;2023-05-10T17:30:34;1.23;;;0.80;;
16133;SDS011;8172;45.018;5.972;2023-05-10T17:35:45;0.70;;;0.70;;
16133;SDS011;8172;45.018;5.972;2023-05-10T17:40:57;0.93;;;0.80;;
16133;SDS011;8172;45.018;5.972;2023-05-10T17:46:06;2.60;;;0.80;;
16133;SDS011;8172;45.018;5.972;2023-05-10T17:51:16;1.00;;;0.70;;
16133;SDS011;8172;45.018;5.972;2023-05-10T17:56:26;2.00;;;0.70;;
16133;SDS011;8172;45.018;5.972;2023-05-10T18:01:35;2.83;;;0.80;;
16133;SDS011;8172;45.018;5.972;2023-05-10T18:06:44;2.80;;;0.90;;
16133;SDS011;8172;45.018;5.972;2023-05-10T18:11:55;0.90;;;0.70;;
16133;SDS011;8172;45.018;5.972;2023-05-10T18:17:03;0.87;;;0.70;;
16133;SDS011;8172;45.018;5.972;2023-05-10T18:22:11;4.30;;;1.00;;
16133;SDS011;8172;45.018;5.972;2023-05-10T18:27:20;1.67;;;0.90;;
16133;SDS011;8172;45.018;5.972;2023-05-10T18:32:29;1.40;;;0.90;;
16133;SDS011;8172;45.018;5.972;2023-05-10T18:37:39;2.00;;;0.90;;
16133;SDS011;8172;45.018;5.972;2023-05-10T18:42:49;3.93;;;1.00;;
16133;SDS011;8172;45.018;5.972;2023-05-10T18:47:59;2.43;;;1.30;;
16133;SDS011;8172;45.018;5.972;2023-05-10T18:53:07;0.97;;;0.87;;
16133;SDS011;8172;45.018;5.972;2023-05-10T18:58:16;1.37;;;1.00;;
16133;SDS011;8172;45.018;5.972;2023-05-10T19:03:25;1.00;;;0.83;;
16133;SDS011;8172;45.018;5.972;2023-05-10T19:08:36;1.83;;;0.90;;
16133;SDS011;8172;45.018;5.972;2023-05-10T19:13:45;2.20;;;0.80;;
16133;SDS011;8172;45.018;5.972;2023-05-10T19:18:54;2.43;;;0.70;;
16133;SDS011;8172;45.018;5.972;2023-05-10T19:24:04;3.30;;;1.10;;
16133;SDS011;8172;45.018;5.972;2023-05-10T19:29:13;1.73;;;0.80;;
16133;SDS011;8172;45.018;5.972;2023-05-10T19:34:22;1.33;;;0.87;;
16133;SDS011;8172;45.018;5.972;2023-05-10T19:39:33;1.17;;;0.90;;
16133;SDS011;8172;45.018;5.972;2023-05-10T19:44:42;1.57;;;0.90;;
16133;SDS011;8172;45.018;5.972;2023-05-10T19:49:50;1.13;;;0.83;;
16133;SDS011;8172;45.018;5.972;2023-05-10T19:55:00;3.97;;;0.93;;
16133;SDS011;8172;45.018;5.972;2023-05-10T20:00:11;1.37;;;0.87;;
16133;SDS011;8172;45.018;5.972;2023-05-10T20:05:22;1.57;;;0.80;;
16133;SDS011;8172;45.018;5.972;2023-05-10T20:10:35;2.40;;;0.80;;
16133;SDS011;8172;45.018;5.972;2023-05-10T20:15:48;1.40;;;0.80;;
16133;SDS011;8172;45.018;5.972;2023-05-10T20:20:59;1.20;;;0.80;;
16133;SDS011;8172;45.018;5.972;2023-05-10T20:26:09;3.00;;;0.83;;
16133;SDS011;8172;45.018;5.972;2023-05-10T20:31:18;1.40;;;1.00;;
16133;SDS011;8172;45.018;5.972;2023-05-10T20:36:27;1.20;;;0.90;;
16133;SDS011;8172;45.018;5.972;2023-05-10T20:41:36;1.07;;;0.70;;
16133;SDS011;8172;45.018;5.972;2023-05-10T20:46:45;2.13;;;0.80;;
16133;SDS011;8172;45.018;5.972;2023-05-10T20:51:54;2.30;;;0.80;;
16133;SDS011;8172;45.018;5.972;2023-05-10T20:57:03;1.57;;;0.83;;
16133;SDS011;8172;45.018;5.972;2023-05-10T21:02:11;2.60;;;0.70;;
16133;SDS011;8172;45.018;5.972;2023-05-10T21:07:18;1.03;;;0.90;;
16133;SDS011;8172;45.018;5.972;2023-05-10T21:12:26;1.13;;;0.83;;
16133;SDS011;8172;45.018;5.972;2023-05-10T21:17:34;1.23;;;0.90;;
16133;SDS011;8172;45.018;5.972;2023-05-10T21:22:42;2.60;;;0.90;;
16133;SDS011;8172;45.018;5.972;2023-05-10T21:27:51;1.33;;;0.90;;
16133;SDS011;8172;45.018;5.972;2023-05-10T21:33:01;3.70;;;0.90;;
16133;SDS011;8172;45.018;5.972;2023-05-10T21:38:11;1.57;;;1.00;;
16133;SDS011;8172;45.018;5.972;2023-05-10T21:43:18;1.67;;;0.90;;
16133;SDS011;8172;45.018;5.972;2023-05-10T21:48:26;1.47;;;1.00;;
16133;SDS011;8172;45.018;5.972;2023-05-10T21:53:34;2.30;;;1.00;;
16133;SDS011;8172;45.018;5.972;2023-05-10T21:58:43;1.07;;;0.90;;
16133;SDS011;8172;45.018;5.972;2023-05-10T22:03:51;2.07;;;1.00;;
16133;SDS011;8172;45.018;5.972;2023-05-10T22:08:58;1.70;;;1.00;;
16133;SDS011;8172;45.018;5.972;2023-05-10T22:14:05;1.23;;;1.00;;
16133;SDS011;8172;45.018;5.972;2023-05-10T22:19:13;1.80;;;0.90;;
16133;SDS011;8172;45.018;5.972;2023-05-10T22:24:21;1.03;;;0.80;;
16133;SDS011;8172;45.018;5.972;2023-05-10T22:29:30;1.57;;;0.90;;
16133;SDS011;8172;45.018;5.972;2023-05-10T22:34:38;0.80;;;0.80;;
16133;SDS011;8172;45.018;5.972;2023-05-10T22:39:48;1.23;;;0.87;;
16133;SDS011;8172;45.018;5.972;2023-05-10T22:44:56;1.47;;;0.70;;
16133;SDS011;8172;45.018;5.972;2023-05-10T22:50:04;1.40;;;0.80;;
16133;SDS011;8172;45.018;5.972;2023-05-10T22:55:12;1.40;;;0.90;;
16133;SDS011;8172;45.018;5.972;2023-05-10T23:00:20;0.90;;;0.80;;
16133;SDS011;8172;45.018;5.972;2023-05-10T23:05:29;3.13;;;0.90;;
16133;SDS011;8172;45.018;5.972;2023-05-10T23:10:37;1.63;;;0.63;;
16133;SDS011;8172;45.018;5.972;2023-05-10T23:15:45;1.87;;;0.80;;
16133;SDS011;8172;45.018;5.972;2023-05-10T23:20:54;2.10;;;0.90;;
16133;SDS011;8172;45.018;5.972;2023-05-10T23:26:02;1.13;;;0.83;;
16133;SDS011;8172;45.018;5.972;2023-05-10T23:31:11;2.23;;;0.70;;
16133;SDS011;8172;45.018;5.972;2023-05-10T23:36:18;0.80;;;0.77;;
16133;SDS011;8172;45.018;5.972;2023-05-10T23:41:27;2.17;;;1.33;;
16133;SDS011;8172;45.018;5.972;2023-05-10T23:46:35;1.10;;;0.63;;
16133;SDS011;8172;45.018;5.972;2023-05-10T23:51:43;2.30;;;0.80;;
16133;SDS011;8172;45.018;5.972;2023-05-10T23:56:51;1.47;;;0.80;;
